sensor_id;sensor_type;location;lat;lon;timestamp;P1;durP1;ratioP1;P2;durP2;ratioP2
46745;SDS011;32493;50.514;9.678;2022-12-07T00:00:43;16.80;;;9.82;;
46745;SDS011;32493;50.514;9.678;2022-12-07T00:02:48;18.33;;;10.02;;
46745;SDS011;32493;50.514;9.678;2022-12-07T00:04:53;16.15;;;9.30;;
46745;SDS011;32493;50.514;9.678;2022-12-07T00:06:58;17.42;;;9.68;;
46745;SDS011;32493;50.514;9.678;2022-12-07T00:09:04;16.52;;;9.43;;
46745;SDS011;32493;50.514;9.678;2022-12-07T00:11:12;15.85;;;9.30;;
46745;SDS011;32493;50.514;9.678;2022-12-07T00:13:22;18.52;;;9.68;;
46745;SDS011;32493;50.514;9.678;2022-12-07T00:15:27;16.95;;;10.38;;
46745;SDS011;32493;50.514;9.678;2022-12-07T00:17:33;20.67;;;10.15;;
46745;SDS011;32493;50.514;9.678;2022-12-07T00:19:38;17.95;;;9.68;;
46745;SDS011;32493;50.514;9.678;2022-12-07T00:21:43;16.73;;;9.65;;
46745;SDS011;32493;50.514;9.678;2022-12-07T00:23:49;16.50;;;9.68;;
46745;SDS011;32493;50.514;9.678;2022-12-07T00:25:56;16.63;;;9.52;;
46745;SDS011;32493;50.514;9.678;2022-12-07T00:28:07;19.00;;;10.13;;
46745;SDS011;32493;50.514;9.678;2022-12-07T00:30:15;19.13;;;10.10;;
46745;SDS011;32493;50.514;9.678;2022-12-07T00:32:21;17.92;;;10.02;;
46745;SDS011;32493;50.514;9.678;2022-12-07T00:34:26;19.88;;;10.52;;
46745;SDS011;32493;50.514;9.678;2022-12-07T00:36:31;18.48;;;11.02;;
46745;SDS011;32493;50.514;9.678;2022-12-07T00:38:37;18.95;;;10.30;;
46745;SDS011;32493;50.514;9.678;2022-12-07T00:40:43;19.45;;;10.85;;
46745;SDS011;32493;50.514;9.678;2022-12-07T00:42:57;20.67;;;11.18;;
46745;SDS011;32493;50.514;9.678;2022-12-07T00:45:03;20.63;;;10.55;;
46745;SDS011;32493;50.514;9.678;2022-12-07T00:47:11;17.58;;;10.07;;
46745;SDS011;32493;50.514;9.678;2022-12-07T00:49:16;18.52;;;10.25;;
46745;SDS011;32493;50.514;9.678;2022-12-07T00:51:22;22.80;;;11.90;;
46745;SDS011;32493;50.514;9.678;2022-12-07T00:53:29;20.23;;;11.82;;
46745;SDS011;32493;50.514;9.678;2022-12-07T00:55:41;24.30;;;10.93;;
46745;SDS011;32493;50.514;9.678;2022-12-07T00:57:48;22.98;;;11.73;;
46745;SDS011;32493;50.514;9.678;2022-12-07T00:59:53;20.48;;;11.18;;
46745;SDS011;32493;50.514;9.678;2022-12-07T01:01:59;23.13;;;11.93;;
46745;SDS011;32493;50.514;9.678;2022-12-07T01:04:09;22.63;;;12.63;;
46745;SDS011;32493;50.514;9.678;2022-12-07T01:06:15;23.45;;;13.10;;
46745;SDS011;32493;50.514;9.678;2022-12-07T01:08:22;25.53;;;13.57;;
46745;SDS011;32493;50.514;9.678;2022-12-07T01:12:35;23.85;;;12.52;;
46745;SDS011;32493;50.514;9.678;2022-12-07T01:14:41;26.08;;;13.70;;
46745;SDS011;32493;50.514;9.678;2022-12-07T01:16:46;25.50;;;14.38;;
46745;SDS011;32493;50.514;9.678;2022-12-07T01:18:53;28.85;;;15.13;;
46745;SDS011;32493;50.514;9.678;2022-12-07T01:21:03;23.50;;;13.35;;
46745;SDS011;32493;50.514;9.678;2022-12-07T01:23:11;30.05;;;15.65;;
46745;SDS011;32493;50.514;9.678;2022-12-07T01:25:16;27.63;;;14.65;;
46745;SDS011;32493;50.514;9.678;2022-12-07T01:27:21;29.05;;;14.07;;
46745;SDS011;32493;50.514;9.678;2022-12-07T01:29:26;28.25;;;15.18;;
46745;SDS011;32493;50.514;9.678;2022-12-07T01:31:32;31.25;;;14.93;;
46745;SDS011;32493;50.514;9.678;2022-12-07T01:33:38;30.30;;;15.20;;
46745;SDS011;32493;50.514;9.678;2022-12-07T01:35:43;32.85;;;15.80;;
46745;SDS011;32493;50.514;9.678;2022-12-07T01:37:51;32.47;;;15.27;;
46745;SDS011;32493;50.514;9.678;2022-12-07T01:39:56;29.85;;;15.07;;
46745;SDS011;32493;50.514;9.678;2022-12-07T01:42:02;29.10;;;14.43;;
46745;SDS011;32493;50.514;9.678;2022-12-07T01:44:15;30.80;;;15.35;;
46745;SDS011;32493;50.514;9.678;2022-12-07T01:46:24;30.40;;;15.75;;
46745;SDS011;32493;50.514;9.678;2022-12-07T01:48:30;33.00;;;15.90;;
46745;SDS011;32493;50.514;9.678;2022-12-07T01:50:38;29.80;;;15.02;;
46745;SDS011;32493;50.514;9.678;2022-12-07T01:52:44;32.55;;;16.20;;
46745;SDS011;32493;50.514;9.678;2022-12-07T01:55:03;31.27;;;15.68;;
46745;SDS011;32493;50.514;9.678;2022-12-07T01:57:11;33.58;;;16.20;;
46745;SDS011;32493;50.514;9.678;2022-12-07T01:59:19;28.55;;;15.02;;
46745;SDS011;32493;50.514;9.678;2022-12-07T02:01:29;31.63;;;15.82;;
46745;SDS011;32493;50.514;9.678;2022-12-07T02:03:34;33.22;;;15.82;;
46745;SDS011;32493;50.514;9.678;2022-12-07T02:05:43;31.75;;;15.20;;
46745;SDS011;32493;50.514;9.678;2022-12-07T02:07:54;28.83;;;15.32;;
46745;SDS011;32493;50.514;9.678;2022-12-07T02:10:11;31.08;;;15.82;;
46745;SDS011;32493;50.514;9.678;2022-12-07T02:12:18;30.73;;;15.93;;
46745;SDS011;32493;50.514;9.678;2022-12-07T02:14:24;31.45;;;16.20;;
46745;SDS011;32493;50.514;9.678;2022-12-07T02:16:32;35.38;;;16.02;;
46745;SDS011;32493;50.514;9.678;2022-12-07T02:18:54;31.75;;;15.35;;
46745;SDS011;32493;50.514;9.678;2022-12-07T02:21:12;33.42;;;16.45;;
46745;SDS011;32493;50.514;9.678;2022-12-07T02:23:35;32.35;;;14.85;;
46745;SDS011;32493;50.514;9.678;2022-12-07T02:25:58;31.08;;;15.45;;
46745;SDS011;32493;50.514;9.678;2022-12-07T02:28:29;29.50;;;15.93;;
46745;SDS011;32493;50.514;9.678;2022-12-07T02:30:42;30.83;;;16.48;;
46745;SDS011;32493;50.514;9.678;2022-12-07T02:32:55;29.50;;;15.35;;
46745;SDS011;32493;50.514;9.678;2022-12-07T02:35:05;33.25;;;16.35;;
46745;SDS011;32493;50.514;9.678;2022-12-07T02:37:18;30.50;;;16.05;;
46745;SDS011;32493;50.514;9.678;2022-12-07T02:39:37;28.65;;;15.10;;
46745;SDS011;32493;50.514;9.678;2022-12-07T02:41:51;30.50;;;15.50;;
46745;SDS011;32493;50.514;9.678;2022-12-07T02:44:02;31.10;;;14.63;;
46745;SDS011;32493;50.514;9.678;2022-12-07T02:46:21;31.20;;;15.30;;
46745;SDS011;32493;50.514;9.678;2022-12-07T02:48:30;26.73;;;14.63;;
46745;SDS011;32493;50.514;9.678;2022-12-07T02:50:37;23.15;;;12.35;;
46745;SDS011;32493;50.514;9.678;2022-12-07T02:52:42;22.48;;;11.98;;
46745;SDS011;32493;50.514;9.678;2022-12-07T02:54:47;21.10;;;12.57;;
46745;SDS011;32493;50.514;9.678;2022-12-07T02:56:55;28.00;;;14.30;;
46745;SDS011;32493;50.514;9.678;2022-12-07T02:59:11;23.42;;;12.15;;
46745;SDS011;32493;50.514;9.678;2022-12-07T03:01:34;25.70;;;12.93;;
46745;SDS011;32493;50.514;9.678;2022-12-07T03:03:53;24.65;;;12.65;;
46745;SDS011;32493;50.514;9.678;2022-12-07T03:06:13;25.42;;;14.18;;
46745;SDS011;32493;50.514;9.678;2022-12-07T03:08:27;18.80;;;10.30;;
46745;SDS011;32493;50.514;9.678;2022-12-07T03:10:42;23.60;;;11.45;;
46745;SDS011;32493;50.514;9.678;2022-12-07T03:12:58;23.08;;;12.15;;
46745;SDS011;32493;50.514;9.678;2022-12-07T03:15:12;24.08;;;11.75;;
46745;SDS011;32493;50.514;9.678;2022-12-07T03:17:37;21.90;;;11.98;;
46745;SDS011;32493;50.514;9.678;2022-12-07T03:19:46;26.92;;;12.35;;
46745;SDS011;32493;50.514;9.678;2022-12-07T03:21:54;21.20;;;12.15;;
46745;SDS011;32493;50.514;9.678;2022-12-07T03:24:03;14.15;;;6.85;;
46745;SDS011;32493;50.514;9.678;2022-12-07T03:26:14;13.48;;;6.03;;
46745;SDS011;32493;50.514;9.678;2022-12-07T03:28:22;22.20;;;11.32;;
46745;SDS011;32493;50.514;9.678;2022-12-07T03:30:32;18.17;;;10.55;;
46745;SDS011;32493;50.514;9.678;2022-12-07T03:32:47;22.27;;;10.50;;
46745;SDS011;32493;50.514;9.678;2022-12-07T03:34:57;19.92;;;9.85;;
46745;SDS011;32493;50.514;9.678;2022-12-07T03:37:10;19.30;;;9.68;;
46745;SDS011;32493;50.514;9.678;2022-12-07T03:39:22;24.35;;;11.00;;
46745;SDS011;32493;50.514;9.678;2022-12-07T03:41:33;22.30;;;11.88;;
46745;SDS011;32493;50.514;9.678;2022-12-07T03:43:45;18.20;;;9.27;;
46745;SDS011;32493;50.514;9.678;2022-12-07T03:45:56;16.05;;;7.43;;
46745;SDS011;32493;50.514;9.678;2022-12-07T03:48:15;14.07;;;7.38;;
46745;SDS011;32493;50.514;9.678;2022-12-07T03:50:28;17.98;;;8.52;;
46745;SDS011;32493;50.514;9.678;2022-12-07T03:52:42;23.30;;;11.07;;
46745;SDS011;32493;50.514;9.678;2022-12-07T03:54:53;20.95;;;11.38;;
46745;SDS011;32493;50.514;9.678;2022-12-07T03:57:04;23.70;;;12.95;;
46745;SDS011;32493;50.514;9.678;2022-12-07T03:59:12;21.23;;;11.35;;
46745;SDS011;32493;50.514;9.678;2022-12-07T04:01:18;21.75;;;11.82;;
46745;SDS011;32493;50.514;9.678;2022-12-07T04:03:26;17.73;;;9.63;;
46745;SDS011;32493;50.514;9.678;2022-12-07T04:07:37;25.23;;;12.18;;
46745;SDS011;32493;50.514;9.678;2022-12-07T04:09:42;24.83;;;12.95;;
46745;SDS011;32493;50.514;9.678;2022-12-07T04:11:47;17.42;;;7.97;;
46745;SDS011;32493;50.514;9.678;2022-12-07T04:13:52;23.17;;;11.77;;
46745;SDS011;32493;50.514;9.678;2022-12-07T04:16:11;26.63;;;12.23;;
46745;SDS011;32493;50.514;9.678;2022-12-07T04:18:16;24.50;;;13.07;;
46745;SDS011;32493;50.514;9.678;2022-12-07T04:20:24;23.83;;;12.63;;
46745;SDS011;32493;50.514;9.678;2022-12-07T04:22:29;22.75;;;12.00;;
46745;SDS011;32493;50.514;9.678;2022-12-07T04:24:34;22.52;;;10.85;;
46745;SDS011;32493;50.514;9.678;2022-12-07T04:26:39;22.13;;;11.95;;
46745;SDS011;32493;50.514;9.678;2022-12-07T04:28:44;24.52;;;12.85;;
46745;SDS011;32493;50.514;9.678;2022-12-07T04:30:49;25.75;;;13.70;;
46745;SDS011;32493;50.514;9.678;2022-12-07T04:32:55;22.55;;;12.45;;
46745;SDS011;32493;50.514;9.678;2022-12-07T04:35:00;21.50;;;12.00;;
46745;SDS011;32493;50.514;9.678;2022-12-07T04:37:10;23.50;;;10.98;;
46745;SDS011;32493;50.514;9.678;2022-12-07T04:39:17;24.13;;;12.27;;
46745;SDS011;32493;50.514;9.678;2022-12-07T04:41:25;23.90;;;11.27;;
46745;SDS011;32493;50.514;9.678;2022-12-07T04:43:31;19.48;;;9.63;;
46745;SDS011;32493;50.514;9.678;2022-12-07T04:45:36;22.73;;;12.45;;
46745;SDS011;32493;50.514;9.678;2022-12-07T04:47:41;23.02;;;11.02;;
46745;SDS011;32493;50.514;9.678;2022-12-07T04:49:47;22.45;;;10.23;;
46745;SDS011;32493;50.514;9.678;2022-12-07T04:51:52;21.73;;;11.60;;
46745;SDS011;32493;50.514;9.678;2022-12-07T04:54:00;21.20;;;11.02;;
46745;SDS011;32493;50.514;9.678;2022-12-07T04:56:06;19.30;;;8.40;;
46745;SDS011;32493;50.514;9.678;2022-12-07T04:58:11;19.80;;;11.30;;
46745;SDS011;32493;50.514;9.678;2022-12-07T05:00:17;21.92;;;11.75;;
46745;SDS011;32493;50.514;9.678;2022-12-07T05:02:23;22.92;;;12.77;;
46745;SDS011;32493;50.514;9.678;2022-12-07T05:04:28;22.10;;;12.80;;
46745;SDS011;32493;50.514;9.678;2022-12-07T05:06:34;23.05;;;12.15;;
46745;SDS011;32493;50.514;9.678;2022-12-07T05:08:39;21.60;;;11.75;;
46745;SDS011;32493;50.514;9.678;2022-12-07T05:10:48;25.55;;;13.63;;
46745;SDS011;32493;50.514;9.678;2022-12-07T05:12:53;19.38;;;9.63;;
46745;SDS011;32493;50.514;9.678;2022-12-07T05:14:59;22.67;;;10.95;;
46745;SDS011;32493;50.514;9.678;2022-12-07T05:17:04;21.25;;;10.90;;
46745;SDS011;32493;50.514;9.678;2022-12-07T05:19:10;23.98;;;12.52;;
46745;SDS011;32493;50.514;9.678;2022-12-07T05:21:16;22.05;;;12.35;;
46745;SDS011;32493;50.514;9.678;2022-12-07T05:23:21;22.25;;;11.05;;
46745;SDS011;32493;50.514;9.678;2022-12-07T05:25:26;22.42;;;12.73;;
46745;SDS011;32493;50.514;9.678;2022-12-07T05:27:33;21.88;;;12.50;;
46745;SDS011;32493;50.514;9.678;2022-12-07T05:31:43;17.63;;;9.75;;
46745;SDS011;32493;50.514;9.678;2022-12-07T05:33:49;23.10;;;11.75;;
46745;SDS011;32493;50.514;9.678;2022-12-07T05:35:55;20.00;;;10.80;;
46745;SDS011;32493;50.514;9.678;2022-12-07T05:38:00;21.83;;;11.80;;
46745;SDS011;32493;50.514;9.678;2022-12-07T05:40:06;22.42;;;11.80;;
46745;SDS011;32493;50.514;9.678;2022-12-07T05:42:14;19.00;;;10.45;;
46745;SDS011;32493;50.514;9.678;2022-12-07T05:44:19;21.67;;;11.68;;
46745;SDS011;32493;50.514;9.678;2022-12-07T05:46:24;19.13;;;10.60;;
46745;SDS011;32493;50.514;9.678;2022-12-07T05:48:29;18.67;;;11.25;;
46745;SDS011;32493;50.514;9.678;2022-12-07T05:50:34;25.65;;;12.15;;
46745;SDS011;32493;50.514;9.678;2022-12-07T05:52:39;20.70;;;11.60;;
46745;SDS011;32493;50.514;9.678;2022-12-07T05:54:44;17.42;;;10.90;;
46745;SDS011;32493;50.514;9.678;2022-12-07T05:56:49;17.77;;;10.27;;
46745;SDS011;32493;50.514;9.678;2022-12-07T05:58:55;20.42;;;10.80;;
46745;SDS011;32493;50.514;9.678;2022-12-07T06:01:15;16.80;;;10.43;;
46745;SDS011;32493;50.514;9.678;2022-12-07T06:03:20;16.05;;;8.75;;
46745;SDS011;32493;50.514;9.678;2022-12-07T06:05:26;18.38;;;9.65;;
46745;SDS011;32493;50.514;9.678;2022-12-07T06:07:31;17.00;;;9.48;;
46745;SDS011;32493;50.514;9.678;2022-12-07T06:09:36;14.93;;;8.05;;
46745;SDS011;32493;50.514;9.678;2022-12-07T06:11:42;14.57;;;9.05;;
46745;SDS011;32493;50.514;9.678;2022-12-07T06:13:59;12.93;;;7.40;;
46745;SDS011;32493;50.514;9.678;2022-12-07T06:16:06;14.20;;;8.30;;
46745;SDS011;32493;50.514;9.678;2022-12-07T06:18:14;13.70;;;7.32;;
46745;SDS011;32493;50.514;9.678;2022-12-07T06:20:19;13.88;;;7.60;;
46745;SDS011;32493;50.514;9.678;2022-12-07T06:22:24;15.23;;;8.18;;
46745;SDS011;32493;50.514;9.678;2022-12-07T06:24:29;13.32;;;7.80;;
46745;SDS011;32493;50.514;9.678;2022-12-07T06:26:35;13.90;;;8.15;;
46745;SDS011;32493;50.514;9.678;2022-12-07T06:28:40;14.15;;;8.55;;
46745;SDS011;32493;50.514;9.678;2022-12-07T06:30:45;13.82;;;8.23;;
46745;SDS011;32493;50.514;9.678;2022-12-07T06:32:51;12.65;;;7.35;;
46745;SDS011;32493;50.514;9.678;2022-12-07T06:34:59;14.35;;;8.38;;
46745;SDS011;32493;50.514;9.678;2022-12-07T06:37:05;13.45;;;8.30;;
46745;SDS011;32493;50.514;9.678;2022-12-07T06:39:10;15.13;;;8.77;;
46745;SDS011;32493;50.514;9.678;2022-12-07T06:41:16;12.00;;;6.78;;
46745;SDS011;32493;50.514;9.678;2022-12-07T06:43:21;12.98;;;8.10;;
46745;SDS011;32493;50.514;9.678;2022-12-07T06:45:26;14.20;;;8.95;;
46745;SDS011;32493;50.514;9.678;2022-12-07T06:47:31;14.18;;;7.90;;
46745;SDS011;32493;50.514;9.678;2022-12-07T06:49:46;13.32;;;7.93;;
46745;SDS011;32493;50.514;9.678;2022-12-07T06:51:54;12.85;;;8.00;;
46745;SDS011;32493;50.514;9.678;2022-12-07T06:53:59;13.55;;;8.35;;
46745;SDS011;32493;50.514;9.678;2022-12-07T06:56:05;14.80;;;8.57;;
46745;SDS011;32493;50.514;9.678;2022-12-07T06:58:11;17.60;;;9.07;;
46745;SDS011;32493;50.514;9.678;2022-12-07T07:00:16;13.32;;;7.32;;
46745;SDS011;32493;50.514;9.678;2022-12-07T07:02:23;15.15;;;8.50;;
46745;SDS011;32493;50.514;9.678;2022-12-07T07:04:31;12.13;;;7.22;;
46745;SDS011;32493;50.514;9.678;2022-12-07T07:06:36;13.38;;;8.20;;
46745;SDS011;32493;50.514;9.678;2022-12-07T07:08:44;13.35;;;7.93;;
46745;SDS011;32493;50.514;9.678;2022-12-07T07:10:49;12.10;;;7.65;;
46745;SDS011;32493;50.514;9.678;2022-12-07T07:12:55;14.32;;;7.38;;
46745;SDS011;32493;50.514;9.678;2022-12-07T07:15:01;14.60;;;7.78;;
46745;SDS011;32493;50.514;9.678;2022-12-07T07:17:06;17.20;;;9.30;;
46745;SDS011;32493;50.514;9.678;2022-12-07T07:19:11;12.75;;;6.75;;
46745;SDS011;32493;50.514;9.678;2022-12-07T07:21:16;14.02;;;7.97;;
46745;SDS011;32493;50.514;9.678;2022-12-07T07:23:21;15.13;;;8.30;;
46745;SDS011;32493;50.514;9.678;2022-12-07T07:25:29;18.00;;;9.00;;
46745;SDS011;32493;50.514;9.678;2022-12-07T07:27:35;18.70;;;9.60;;
46745;SDS011;32493;50.514;9.678;2022-12-07T07:29:41;19.42;;;9.52;;
46745;SDS011;32493;50.514;9.678;2022-12-07T07:31:46;14.93;;;7.50;;
46745;SDS011;32493;50.514;9.678;2022-12-07T07:33:51;14.63;;;7.80;;
46745;SDS011;32493;50.514;9.678;2022-12-07T07:35:56;14.93;;;8.52;;
46745;SDS011;32493;50.514;9.678;2022-12-07T07:38:01;13.38;;;7.82;;
46745;SDS011;32493;50.514;9.678;2022-12-07T07:40:08;14.30;;;8.38;;
46745;SDS011;32493;50.514;9.678;2022-12-07T07:42:21;17.85;;;9.75;;
46745;SDS011;32493;50.514;9.678;2022-12-07T07:44:26;15.18;;;9.18;;
46745;SDS011;32493;50.514;9.678;2022-12-07T07:46:36;15.88;;;8.70;;
46745;SDS011;32493;50.514;9.678;2022-12-07T07:48:41;15.68;;;8.40;;
46745;SDS011;32493;50.514;9.678;2022-12-07T07:50:46;17.48;;;8.55;;
46745;SDS011;32493;50.514;9.678;2022-12-07T07:52:52;20.52;;;10.95;;
46745;SDS011;32493;50.514;9.678;2022-12-07T07:54:57;25.05;;;13.43;;
46745;SDS011;32493;50.514;9.678;2022-12-07T07:57:02;24.05;;;12.88;;
46745;SDS011;32493;50.514;9.678;2022-12-07T07:59:10;23.88;;;13.00;;
46745;SDS011;32493;50.514;9.678;2022-12-07T08:01:15;24.98;;;12.27;;
46745;SDS011;32493;50.514;9.678;2022-12-07T08:03:21;22.73;;;12.30;;
46745;SDS011;32493;50.514;9.678;2022-12-07T08:05:27;22.85;;;11.98;;
46745;SDS011;32493;50.514;9.678;2022-12-07T08:07:32;20.92;;;11.45;;
46745;SDS011;32493;50.514;9.678;2022-12-07T08:09:37;23.60;;;12.07;;
46745;SDS011;32493;50.514;9.678;2022-12-07T08:11:43;21.73;;;11.50;;
46745;SDS011;32493;50.514;9.678;2022-12-07T08:13:48;22.40;;;11.52;;
46745;SDS011;32493;50.514;9.678;2022-12-07T08:15:55;20.10;;;11.23;;
46745;SDS011;32493;50.514;9.678;2022-12-07T08:18:00;20.67;;;11.13;;
46745;SDS011;32493;50.514;9.678;2022-12-07T08:20:07;19.35;;;11.00;;
46745;SDS011;32493;50.514;9.678;2022-12-07T08:22:13;22.27;;;11.32;;
46745;SDS011;32493;50.514;9.678;2022-12-07T08:24:18;21.35;;;11.15;;
46745;SDS011;32493;50.514;9.678;2022-12-07T08:26:23;18.08;;;10.82;;
46745;SDS011;32493;50.514;9.678;2022-12-07T08:28:28;17.05;;;10.00;;
46745;SDS011;32493;50.514;9.678;2022-12-07T08:30:34;16.10;;;9.55;;
46745;SDS011;32493;50.514;9.678;2022-12-07T08:32:42;18.90;;;10.77;;
46745;SDS011;32493;50.514;9.678;2022-12-07T08:34:49;17.77;;;9.77;;
46745;SDS011;32493;50.514;9.678;2022-12-07T08:36:56;15.98;;;9.07;;
46745;SDS011;32493;50.514;9.678;2022-12-07T08:39:01;15.00;;;8.88;;
46745;SDS011;32493;50.514;9.678;2022-12-07T08:41:27;17.45;;;10.05;;
46745;SDS011;32493;50.514;9.678;2022-12-07T08:43:33;17.42;;;9.95;;
46745;SDS011;32493;50.514;9.678;2022-12-07T08:45:39;16.10;;;9.45;;
46745;SDS011;32493;50.514;9.678;2022-12-07T08:47:48;16.15;;;9.18;;
46745;SDS011;32493;50.514;9.678;2022-12-07T08:49:58;15.32;;;9.48;;
46745;SDS011;32493;50.514;9.678;2022-12-07T08:52:05;15.57;;;9.15;;
46745;SDS011;32493;50.514;9.678;2022-12-07T08:54:12;20.15;;;9.50;;
46745;SDS011;32493;50.514;9.678;2022-12-07T08:56:20;15.43;;;9.10;;
46745;SDS011;32493;50.514;9.678;2022-12-07T08:58:26;18.83;;;9.68;;
46745;SDS011;32493;50.514;9.678;2022-12-07T09:00:31;16.05;;;9.80;;
46745;SDS011;32493;50.514;9.678;2022-12-07T09:02:36;17.90;;;10.10;;
46745;SDS011;32493;50.514;9.678;2022-12-07T09:04:45;14.85;;;9.68;;
46745;SDS011;32493;50.514;9.678;2022-12-07T09:08:56;17.50;;;9.48;;
46745;SDS011;32493;50.514;9.678;2022-12-07T09:11:05;17.02;;;9.38;;
46745;SDS011;32493;50.514;9.678;2022-12-07T09:13:10;15.95;;;8.95;;
46745;SDS011;32493;50.514;9.678;2022-12-07T09:15:16;15.10;;;9.07;;
46745;SDS011;32493;50.514;9.678;2022-12-07T09:17:21;16.27;;;7.85;;
46745;SDS011;32493;50.514;9.678;2022-12-07T09:19:27;13.60;;;6.97;;
46745;SDS011;32493;50.514;9.678;2022-12-07T09:21:35;15.10;;;8.02;;
46745;SDS011;32493;50.514;9.678;2022-12-07T09:23:41;13.80;;;6.80;;
46745;SDS011;32493;50.514;9.678;2022-12-07T09:25:47;13.25;;;6.90;;
46745;SDS011;32493;50.514;9.678;2022-12-07T09:27:55;12.82;;;6.57;;
46745;SDS011;32493;50.514;9.678;2022-12-07T09:30:01;14.85;;;7.18;;
46745;SDS011;32493;50.514;9.678;2022-12-07T09:32:07;10.80;;;6.13;;
46745;SDS011;32493;50.514;9.678;2022-12-07T09:34:12;10.52;;;5.97;;
46745;SDS011;32493;50.514;9.678;2022-12-07T09:36:18;8.98;;;5.05;;
46745;SDS011;32493;50.514;9.678;2022-12-07T09:38:26;13.50;;;5.95;;
46745;SDS011;32493;50.514;9.678;2022-12-07T09:40:32;10.07;;;6.07;;
46745;SDS011;32493;50.514;9.678;2022-12-07T09:42:38;12.27;;;5.85;;
46745;SDS011;32493;50.514;9.678;2022-12-07T09:44:48;9.32;;;5.20;;
46745;SDS011;32493;50.514;9.678;2022-12-07T09:46:53;8.75;;;4.35;;
46745;SDS011;32493;50.514;9.678;2022-12-07T09:48:59;10.07;;;5.40;;
46745;SDS011;32493;50.514;9.678;2022-12-07T09:51:10;10.40;;;5.60;;
46745;SDS011;32493;50.514;9.678;2022-12-07T09:53:27;8.48;;;4.45;;
46745;SDS011;32493;50.514;9.678;2022-12-07T09:55:38;9.30;;;5.20;;
46745;SDS011;32493;50.514;9.678;2022-12-07T09:57:47;8.20;;;3.55;;
46745;SDS011;32493;50.514;9.678;2022-12-07T09:59:52;8.70;;;4.25;;
46745;SDS011;32493;50.514;9.678;2022-12-07T10:02:04;5.80;;;3.08;;
46745;SDS011;32493;50.514;9.678;2022-12-07T10:04:38;9.65;;;4.57;;
46745;SDS011;32493;50.514;9.678;2022-12-07T10:06:43;7.88;;;4.65;;
46745;SDS011;32493;50.514;9.678;2022-12-07T10:08:52;9.52;;;4.03;;
46745;SDS011;32493;50.514;9.678;2022-12-07T10:13:08;7.82;;;4.28;;
46745;SDS011;32493;50.514;9.678;2022-12-07T10:15:15;8.32;;;4.78;;
46745;SDS011;32493;50.514;9.678;2022-12-07T10:17:28;8.65;;;4.32;;
46745;SDS011;32493;50.514;9.678;2022-12-07T10:19:37;10.60;;;4.30;;
46745;SDS011;32493;50.514;9.678;2022-12-07T10:21:43;7.63;;;4.20;;
46745;SDS011;32493;50.514;9.678;2022-12-07T10:24:14;9.55;;;4.38;;
46745;SDS011;32493;50.514;9.678;2022-12-07T10:26:26;6.38;;;3.55;;
46745;SDS011;32493;50.514;9.678;2022-12-07T10:28:35;12.20;;;4.35;;
46745;SDS011;32493;50.514;9.678;2022-12-07T10:30:50;8.52;;;3.97;;
46745;SDS011;32493;50.514;9.678;2022-12-07T10:33:01;11.32;;;3.40;;
46745;SDS011;32493;50.514;9.678;2022-12-07T10:35:19;4.45;;;2.05;;
46745;SDS011;32493;50.514;9.678;2022-12-07T10:37:28;7.30;;;2.95;;
46745;SDS011;32493;50.514;9.678;2022-12-07T10:39:47;8.63;;;3.50;;
46745;SDS011;32493;50.514;9.678;2022-12-07T10:41:55;7.03;;;2.90;;
46745;SDS011;32493;50.514;9.678;2022-12-07T10:44:02;6.57;;;3.15;;
46745;SDS011;32493;50.514;9.678;2022-12-07T10:46:13;5.05;;;2.85;;
46745;SDS011;32493;50.514;9.678;2022-12-07T10:49:04;4.70;;;2.70;;
46745;SDS011;32493;50.514;9.678;2022-12-07T10:51:27;3.30;;;1.50;;
46745;SDS011;32493;50.514;9.678;2022-12-07T10:53:50;4.88;;;1.88;;
46745;SDS011;32493;50.514;9.678;2022-12-07T10:59:12;6.22;;;2.90;;
46745;SDS011;32493;50.514;9.678;2022-12-07T11:01:52;6.75;;;2.58;;
46745;SDS011;32493;50.514;9.678;2022-12-07T11:04:16;5.60;;;2.67;;
46745;SDS011;32493;50.514;9.678;2022-12-07T11:06:34;8.95;;;2.80;;
46745;SDS011;32493;50.514;9.678;2022-12-07T11:08:56;5.68;;;2.33;;
46745;SDS011;32493;50.514;9.678;2022-12-07T11:11:13;3.58;;;1.80;;
46745;SDS011;32493;50.514;9.678;2022-12-07T11:13:28;6.35;;;2.35;;
46745;SDS011;32493;50.514;9.678;2022-12-07T11:15:47;7.57;;;3.42;;
46745;SDS011;32493;50.514;9.678;2022-12-07T11:18:14;6.88;;;3.17;;
46745;SDS011;32493;50.514;9.678;2022-12-07T11:20:32;9.90;;;3.58;;
46745;SDS011;32493;50.514;9.678;2022-12-07T11:22:47;3.92;;;2.55;;
46745;SDS011;32493;50.514;9.678;2022-12-07T11:25:13;7.30;;;2.55;;
46745;SDS011;32493;50.514;9.678;2022-12-07T11:27:33;7.45;;;2.05;;
46745;SDS011;32493;50.514;9.678;2022-12-07T11:32:28;7.05;;;2.97;;
46745;SDS011;32493;50.514;9.678;2022-12-07T11:34:53;6.15;;;3.22;;
46745;SDS011;32493;50.514;9.678;2022-12-07T11:37:10;7.75;;;3.78;;
46745;SDS011;32493;50.514;9.678;2022-12-07T11:39:23;7.03;;;4.03;;
46745;SDS011;32493;50.514;9.678;2022-12-07T11:41:35;11.82;;;3.60;;
46745;SDS011;32493;50.514;9.678;2022-12-07T11:43:52;8.68;;;3.17;;
46745;SDS011;32493;50.514;9.678;2022-12-07T11:46:04;8.20;;;3.67;;
46745;SDS011;32493;50.514;9.678;2022-12-07T11:48:19;9.10;;;4.18;;
46745;SDS011;32493;50.514;9.678;2022-12-07T11:50:36;13.00;;;4.32;;
46745;SDS011;32493;50.514;9.678;2022-12-07T11:52:47;8.68;;;3.45;;
46745;SDS011;32493;50.514;9.678;2022-12-07T11:54:57;7.50;;;3.97;;
46745;SDS011;32493;50.514;9.678;2022-12-07T11:57:07;9.30;;;3.87;;
46745;SDS011;32493;50.514;9.678;2022-12-07T11:59:23;8.82;;;3.20;;
46745;SDS011;32493;50.514;9.678;2022-12-07T12:01:39;9.05;;;4.82;;
46745;SDS011;32493;50.514;9.678;2022-12-07T12:04:00;12.07;;;2.92;;
46745;SDS011;32493;50.514;9.678;2022-12-07T12:06:21;5.05;;;2.88;;
46745;SDS011;32493;50.514;9.678;2022-12-07T12:08:27;5.53;;;2.22;;
46745;SDS011;32493;50.514;9.678;2022-12-07T12:11:00;8.30;;;3.40;;
46745;SDS011;32493;50.514;9.678;2022-12-07T12:13:33;7.55;;;2.72;;
46745;SDS011;32493;50.514;9.678;2022-12-07T12:16:32;5.95;;;2.80;;
46745;SDS011;32493;50.514;9.678;2022-12-07T12:19:04;5.45;;;2.63;;
46745;SDS011;32493;50.514;9.678;2022-12-07T12:21:27;6.95;;;2.78;;
46745;SDS011;32493;50.514;9.678;2022-12-07T12:23:36;10.93;;;3.17;;
46745;SDS011;32493;50.514;9.678;2022-12-07T12:25:47;8.30;;;2.85;;
46745;SDS011;32493;50.514;9.678;2022-12-07T12:27:55;8.52;;;2.85;;
46745;SDS011;32493;50.514;9.678;2022-12-07T12:30:29;7.50;;;2.63;;
46745;SDS011;32493;50.514;9.678;2022-12-07T12:32:36;4.93;;;2.40;;
46745;SDS011;32493;50.514;9.678;2022-12-07T12:35:01;6.72;;;2.58;;
46745;SDS011;32493;50.514;9.678;2022-12-07T12:39:59;4.90;;;2.35;;
46745;SDS011;32493;50.514;9.678;2022-12-07T12:42:52;3.55;;;2.30;;
46745;SDS011;32493;50.514;9.678;2022-12-07T12:47:41;4.90;;;2.08;;
46745;SDS011;32493;50.514;9.678;2022-12-07T12:50:15;8.02;;;3.10;;
46745;SDS011;32493;50.514;9.678;2022-12-07T12:55:11;5.25;;;2.15;;
46745;SDS011;32493;50.514;9.678;2022-12-07T12:57:22;7.05;;;2.90;;
46745;SDS011;32493;50.514;9.678;2022-12-07T12:59:32;7.32;;;2.70;;
46745;SDS011;32493;50.514;9.678;2022-12-07T13:01:39;5.07;;;2.22;;
46745;SDS011;32493;50.514;9.678;2022-12-07T13:03:51;3.53;;;2.10;;
46745;SDS011;32493;50.514;9.678;2022-12-07T13:08:39;5.47;;;2.30;;
46745;SDS011;32493;50.514;9.678;2022-12-07T13:10:46;4.13;;;1.60;;
46745;SDS011;32493;50.514;9.678;2022-12-07T13:12:56;8.60;;;2.50;;
46745;SDS011;32493;50.514;9.678;2022-12-07T13:15:03;4.13;;;2.42;;